首页
METAR-TAF:

METAR-TAF

机场 :

薩卡特卡斯州, 墨西哥

纬度: 22-54N, 经度: 102-41W, 海拔: 2140米

当前天气观测

该预报发布于1小时和7分钟前的09:40 UTC
静风
温度 18°C
湿度 64%
气压 1020 hPa
能見度: 16.1公里
天空无云

METAR: MMZC 190940Z E00000KT 10SM SKC 18/11 A3012 RMK HZY

时间: 05:47 (10:47 UTC)

预报

该预报发布于5小时和17分钟前的05:30 UTC
预报有效从19日的 06点(UTC)到 20日的 06点(UTC)
风速10节,风向北转东北
能見度: 10公里
散云层高于5000英尺
多云层高于8000英尺
从 19日的 1500点(UTC)
风速10节,风向北转东北
能見度: 10公里
天空无云
短暂存在
从 19日的 18点(UTC)到 19日的 22点(UTC)
风速15节,风向,有时为25节阵风
从 20日的 0300点(UTC)
风速15节,风向
能見度: 10公里
散云层高于5000英尺
散云层高于10000英尺

TAF: MMZC 190530Z 1906/2006 02010KT P6SM SCT050 BKN080 TX33/1921Z TN18/1913Z FM191500 02010KT P6SM SKC TEMPO 1918/1922 36015G25KT FM200300 36015KT P6SM SCT050 SCT100

超过4000个机场的气象观测和天气预报(METAR&TAF报告)。

可查询的气象台以黄色和红色小点在地图上表示。

将鼠标移到小点上方,可查看气象台名称。

然后点击查看天气观测和预报。

如需切换地图:点击带黑十字的绿色按钮放大地图;点击带横线的绿色按钮缩小地图;或者点击绿色箭头查看邻近地区的地图。


METAR-TAF: